Terminal Aerodrome Forecast
Issued by NWS Austin/San Antonio, TX

Home | Current Version | Previous Version | Text Only | Print | Product List | Glossary On
Versions: 1 2 3 4 5 6 7 8 9 10 11 12 13 14 15 16 17 18 19 20 21 22
293
FTUS44 KEWX 241732 AAA
TAFSAT
TAF AMD
KSAT 241732Z 2418/2524 19011KT P6SM SCT250
     FM250100 15007KT P6SM SCT250
     FM250700 34008KT P6SM BKN070
     FM251500 35013KT P6SM BKN070=

USA.gov is the U.S. government's official web portal to all federal, state and local government web resources and services.